Time;durP1;ratioP1;P1;durP2;ratioP2;P2;SDS_P1;SDS_P2;PMS_P1;PMS_P2;Temp;Humidity;BMP_temperature;BMP_pressure;BME280_temperature;BME280_humidity;BME280_pressure;Samples;Min_cycle;Max_cycle;Signal;HPM_P1;HPM_P2
2021/06/29 00:00:30;;;;;;;16.00;7.60;;;;;;;14.24;86.50;101251.41;4827080;29;20027;-81
2021/06/29 00:03:03;;;;;;;16.50;7.47;;;;;;;14.25;86.37;101250.34;4826289;29;20022;-81
2021/06/29 00:05:35;;;;;;;16.60;8.15;;;;;;;13.45;86.46;101117.16;4826806;29;20041;-81
2021/06/29 00:08:03;;;;;;;12.98;7.03;;;;;;;13.86;85.81;101171.75;4826406;29;20043;-81
2021/06/29 00:10:30;;;;;;;13.30;7.47;;;;;;;13.43;85.62;101116.53;4826628;29;20128;-81
2021/06/29 00:12:56;;;;;;;21.45;8.30;;;;;;;13.32;85.49;101094.50;4826844;29;20026;-81
2021/06/29 00:15:26;;;;;;;15.75;8.18;;;;;;;13.66;85.79;101156.63;4825369;29;20357;-81
2021/06/29 00:17:51;;;;;;;14.25;7.75;;;;;;;13.80;85.71;101177.19;4830316;29;20062;-81
2021/06/29 00:20:18;;;;;;;12.82;7.18;;;;;;;14.14;85.58;101235.63;4830311;29;20358;-81
2021/06/29 00:22:44;;;;;;;16.33;7.30;;;;;;;13.86;84.96;101179.06;4828120;29;20026;-82
2021/06/29 00:25:12;;;;;;;16.60;6.68;;;;;;;13.50;85.32;101128.16;4829677;29;20021;-81
2021/06/29 00:27:39;;;;;;;12.68;6.63;;;;;;;13.60;85.17;101148.31;4828584;29;20042;-81
2021/06/29 00:30:06;;;;;;;14.75;6.85;;;;;;;13.28;84.61;101095.16;4831177;29;20046;-81
2021/06/29 00:32:32;;;;;;;19.27;6.57;;;;;;;13.58;84.85;101141.47;4830054;29;20034;-82
2021/06/29 00:34:57;;;;;;;11.60;5.88;;;;;;;13.44;84.61;101112.78;4829203;29;20126;-82
2021/06/29 00:37:23;;;;;;;12.57;5.82;;;;;;;13.33;84.32;101101.56;4830371;29;20039;-81
2021/06/29 00:39:49;;;;;;;12.95;6.22;;;;;;;13.53;84.24;101141.25;4830210;29;20027;-82
2021/06/29 00:42:14;;;;;;;12.38;5.72;;;;;;;13.38;83.76;101125.28;4829350;29;20086;-81
2021/06/29 00:44:40;;;;;;;10.52;5.50;;;;;;;13.75;84.50;101174.31;4830650;29;20079;-81
2021/06/29 00:47:09;;;;;;;11.13;5.70;;;;;;;13.25;84.35;101109.06;4827928;29;20019;-81
2021/06/29 00:49:35;;;;;;;17.13;5.97;;;;;;;13.49;84.54;101145.44;4828905;29;20092;-80
2021/06/29 00:52:01;;;;;;;11.27;5.72;;;;;;;13.31;84.21;101121.72;4829394;29;20027;-82
2021/06/29 00:54:27;;;;;;;13.30;5.95;;;;;;;13.26;84.36;101133.19;4828491;29;20034;-81
2021/06/29 00:56:52;;;;;;;12.65;5.88;;;;;;;13.06;84.15;101100.72;4830085;29;20031;-82
2021/06/29 00:59:18;;;;;;;11.65;5.85;;;;;;;13.28;84.28;101160.84;4827334;29;20054;-81
2021/06/29 01:01:44;;;;;;;12.02;5.88;;;;;;;12.74;84.62;101083.47;4828182;29;20019;-81
2021/06/29 01:04:09;;;;;;;13.98;5.35;;;;;;;13.14;84.91;101162.69;4828075;29;20037;-81
2021/06/29 01:06:37;;;;;;;11.18;5.70;;;;;;;13.42;84.93;101214.88;4813451;29;20010;-81
2021/06/29 01:09:03;;;;;;;13.13;5.68;;;;;;;13.34;85.09;101221.31;4829375;29;20062;-81
2021/06/29 01:11:29;;;;;;;12.52;5.70;;;;;;;13.24;85.17;101210.91;4827475;29;20038;-81
2021/06/29 01:13:55;;;;;;;12.73;5.38;;;;;;;13.11;85.48;101200.91;4825098;29;20062;-81
2021/06/29 01:16:20;;;;;;;11.65;5.85;;;;;;;13.06;85.45;101211.50;4811278;29;20035;-81
2021/06/29 01:18:46;;;;;;;11.43;5.80;;;;;;;12.96;85.46;101213.75;4821017;29;20039;-81
2021/06/29 01:21:19;;;;;;;12.30;6.18;;;;;;;12.85;85.60;101215.19;4828076;29;20059;-81
2021/06/29 01:23:54;;;;;;;14.07;5.93;;;;;;;12.80;85.80;101214.13;4827925;29;20027;-80
2021/06/29 01:26:22;;;;;;;12.45;6.03;;;;;;;12.68;85.99;101201.25;4828107;29;20037;-81
2021/06/29 01:31:19;;;;;;;9.77;5.88;;;;;;;12.62;86.26;101199.34;4826215;29;20046;-81
2021/06/29 01:33:45;;;;;;;13.25;6.30;;;;;;;12.59;86.33;101194.34;4826665;29;20046;-81
2021/06/29 01:36:13;;;;;;;15.18;6.05;;;;;;;12.52;86.27;101198.91;4827559;29;20041;-81
2021/06/29 01:38:39;;;;;;;11.40;6.35;;;;;;;12.37;86.36;101179.31;4827643;29;20043;-80
2021/06/29 01:41:04;;;;;;;15.77;6.40;;;;;;;12.41;86.31;101194.06;4826672;29;20059;-81
2021/06/29 01:43:43;;;;;;;11.25;6.10;;;;;;;12.36;86.77;101188.47;4827862;29;20039;-80
2021/06/29 01:46:08;;;;;;;11.10;6.13;;;;;;;12.31;86.57;101186.34;4813456;29;20019;-81
2021/06/29 01:48:34;;;;;;;12.82;5.88;;;;;;;12.25;86.84;101184.47;4812342;29;20054;-81
2021/06/29 01:50:59;;;;;;;13.38;6.18;;;;;;;11.99;86.85;101164.41;4828585;29;20035;-81
2021/06/29 01:53:25;;;;;;;14.73;6.20;;;;;;;12.05;86.85;101187.03;4829158;29;20022;-82
2021/06/29 01:55:50;;;;;;;11.02;5.72;;;;;;;12.05;86.98;101203.22;4832079;29;20068;-81
2021/06/29 01:58:25;;;;;;;11.77;5.63;;;;;;;11.89;86.93;101184.69;4829197;29;20072;-81
2021/06/29 02:00:51;;;;;;;13.45;6.43;;;;;;;11.89;86.81;101192.78;4825390;29;20086;-81
2021/06/29 02:03:16;;;;;;;10.32;6.35;;;;;;;11.81;87.16;101179.41;4827765;29;20052;-80
2021/06/29 02:05:42;;;;;;;14.10;6.18;;;;;;;11.84;87.05;101184.41;4826528;29;20062;-81
2021/06/29 02:08:07;;;;;;;11.10;5.85;;;;;;;11.83;87.24;101188.97;4826503;29;20532;-80
2021/06/29 02:10:33;;;;;;;12.40;6.45;;;;;;;11.83;87.26;101193.53;4824648;29;20051;-78
2021/06/29 02:12:58;;;;;;;14.95;6.78;;;;;;;11.82;87.18;101200.81;4821124;29;20065;-81
2021/06/29 02:15:25;;;;;;;10.80;6.78;;;;;;;11.80;87.52;101205.56;4822149;29;20043;-81
2021/06/29 02:17:50;;;;;;;10.70;6.03;;;;;;;11.74;87.50;101203.63;4821955;29;20045;-81
2021/06/29 02:20:17;;;;;;;9.70;6.80;;;;;;;11.70;87.67;101205.06;4808253;29;20055;-82
2021/06/29 02:22:45;;;;;;;12.98;6.65;;;;;;;11.63;87.79;101194.25;4825055;29;20027;-80
2021/06/29 02:25:11;;;;;;;10.07;6.97;;;;;;;11.67;87.70;101198.19;4824958;29;20042;-80
2021/06/29 02:27:36;;;;;;;11.13;6.35;;;;;;;11.67;87.71;101195.50;4809996;29;20034;-81
2021/06/29 02:30:03;;;;;;;14.88;7.53;;;;;;;11.67;87.65;101190.13;4824785;29;20038;-81
2021/06/29 02:32:28;;;;;;;12.85;7.47;;;;;;;11.57;87.76;101176.16;4824197;29;20031;-81
2021/06/29 02:34:54;;;;;;;13.50;7.45;;;;;;;11.68;88.29;101185.56;4825586;29;20027;-81
2021/06/29 02:37:19;;;;;;;14.70;7.55;;;;;;;11.74;87.86;101190.16;4824662;29;20038;-81
2021/06/29 02:39:45;;;;;;;14.55;7.97;;;;;;;11.71;88.31;101180.59;4825180;29;20042;-80
2021/06/29 02:42:12;;;;;;;11.93;7.55;;;;;;;11.75;88.22;101170.25;4824731;29;20378;-81
2021/06/29 02:44:37;;;;;;;10.75;7.65;;;;;;;11.76;88.01;101172.75;4837140;29;20050;-82
2021/06/29 02:47:03;;;;;;;14.05;7.20;;;;;;;11.77;87.95;101163.63;4824881;29;20038;-81
2021/06/29 02:49:29;;;;;;;16.27;8.40;;;;;;;11.82;87.79;101164.91;4823748;29;20393;-82
2021/06/29 02:51:55;;;;;;;17.85;8.55;;;;;;;11.85;88.28;101164.53;4824281;29;20034;-81
2021/06/29 02:54:20;;;;;;;13.50;8.50;;;;;;;12.14;87.63;101182.31;4822576;29;20035;-82
2021/06/29 02:56:46;;;;;;;13.27;8.05;;;;;;;12.61;85.75;101170.66;4808299;29;20040;-79
2021/06/29 02:59:14;;;;;;;13.10;7.53;;;;;;;13.21;84.14;101175.34;4816378;29;20041;-81
2021/06/29 03:01:40;;;;;;;12.77;7.60;;;;;;;13.60;82.79;101175.34;4824040;29;20094;-81
2021/06/29 03:04:06;;;;;;;9.32;6.53;;;;;;;14.04;81.08;101164.88;4823552;29;20038;-80
2021/06/29 03:06:32;;;;;;;11.90;6.90;;;;;;;14.47;79.68;101150.72;4825214;29;20041;-81
2021/06/29 03:08:59;;;;;;;13.20;6.90;;;;;;;15.05;77.96;101169.56;4822521;29;20086;-81
2021/06/29 03:11:24;;;;;;;12.90;6.20;;;;;;;15.45;76.37;101178.19;4824162;29;20031;-81
2021/06/29 03:13:50;;;;;;;9.32;6.22;;;;;;;15.76;75.36;101181.94;4824704;29;20110;-81
2021/06/29 03:16:15;;;;;;;12.35;6.13;;;;;;;16.11;74.07;101186.75;4809620;29;20031;-81
2021/06/29 03:18:41;;;;;;;12.20;5.82;;;;;;;16.36;73.28;101192.13;4809858;29;20078;-82
2021/06/29 03:21:07;;;;;;;11.65;5.95;;;;;;;16.34;73.04;101197.75;4806429;29;20048;-81
2021/06/29 03:23:34;;;;;;;9.60;5.50;;;;;;;15.74;74.51;101181.31;4838074;29;20113;-81
2021/06/29 03:25:59;;;;;;;11.05;5.38;;;;;;;15.22;76.38;101194.25;4825947;29;20054;-81
2021/06/29 03:28:25;;;;;;;9.65;5.95;;;;;;;14.67;78.07;101180.41;4826485;29;20030;-81
2021/06/29 03:30:50;;;;;;;8.38;6.18;;;;;;;14.37;79.34;101186.41;4840649;29;20053;-81
2021/06/29 03:33:16;;;;;;;16.05;5.70;;;;;;;14.07;80.22;101164.41;4839002;29;20045;-81
2021/06/29 03:35:41;;;;;;;11.60;6.20;;;;;;;14.06;80.68;101173.59;4825951;29;20022;-80
2021/06/29 03:38:06;;;;;;;10.93;6.28;;;;;;;14.02;81.16;101170.47;4826756;29;20015;-81
2021/06/29 03:40:32;;;;;;;12.50;6.20;;;;;;;14.01;81.13;101166.13;4823715;29;20073;-82
2021/06/29 03:42:57;;;;;;;11.93;6.65;;;;;;;13.94;81.39;101149.09;4810582;29;20035;-81
2021/06/29 03:45:23;;;;;;;14.50;6.90;;;;;;;14.17;81.03;101153.13;4810491;29;20031;-81
2021/06/29 03:47:48;;;;;;;9.82;6.68;;;;;;;14.28;80.66;101155.19;4822998;29;20015;-81
2021/06/29 03:50:14;;;;;;;15.70;7.07;;;;;;;14.19;80.89;101157.31;4835085;29;20061;-80
2021/06/29 03:52:39;;;;;;;12.07;7.05;;;;;;;14.17;81.44;101172.09;4825758;29;20027;-80
2021/06/29 03:55:08;;;;;;;11.63;7.00;;;;;;;14.18;81.78;101158.34;4827151;29;20019;-81
2021/06/29 03:57:33;;;;;;;12.80;7.05;;;;;;;14.29;81.31;101167.69;4822681;29;20046;-81
2021/06/29 03:59:59;;;;;;;9.98;6.55;;;;;;;14.31;81.59;101171.00;4823463;29;20411;-80
2021/06/29 04:02:24;;;;;;;12.82;7.07;;;;;;;14.89;80.26;101167.38;4819849;29;20026;-78
2021/06/29 04:04:50;;;;;;;11.10;7.25;;;;;;;14.82;79.80;101156.59;4814928;29;20035;-80
2021/06/29 04:07:16;;;;;;;12.48;6.90;;;;;;;14.84;80.51;101159.09;4808532;29;20038;-79
2021/06/29 04:09:42;;;;;;;11.23;6.70;;;;;;;15.41;78.86;101155.28;4809044;29;20066;-79
2021/06/29 04:12:08;;;;;;;11.38;6.78;;;;;;;15.51;78.58;101162.94;4810148;29;20094;-80
2021/06/29 04:14:34;;;;;;;14.18;6.93;;;;;;;16.25;76.40;101160.28;4815889;29;20044;-80
2021/06/29 04:16:59;;;;;;;11.15;6.30;;;;;;;17.98;70.96;101163.84;4813952;29;20046;-79
2021/06/29 04:19:25;;;;;;;12.98;6.22;;;;;;;19.15;67.26;101152.47;4817844;29;20086;-81
2021/06/29 04:21:50;;;;;;;10.70;5.25;;;;;;;19.66;65.50;101157.91;4825422;29;20045;-83
2021/06/29 04:24:16;;;;;;;9.65;4.80;;;;;;;20.33;63.70;101152.25;4821875;29;20035;-81
2021/06/29 04:26:41;;;;;;;8.63;4.57;;;;;;;20.41;63.25;101149.06;4827144;29;20038;-82
2021/06/29 04:29:07;;;;;;;9.93;5.00;;;;;;;20.34;63.08;101169.47;4833658;29;20067;-80
2021/06/29 04:31:32;;;;;;;8.80;4.85;;;;;;;20.17;62.43;101123.09;4818256;29;20030;-80
2021/06/29 04:33:58;;;;;;;10.05;4.63;;;;;;;19.42;65.50;101158.09;4812476;29;20027;-80
2021/06/29 04:36:23;;;;;;;7.45;4.82;;;;;;;18.94;66.97;101158.63;4819550;29;20023;-79
2021/06/29 04:38:49;;;;;;;10.15;4.70;;;;;;;19.31;65.79;101161.75;4813888;29;20063;-82
2021/06/29 04:41:14;;;;;;;9.52;5.20;;;;;;;18.33;67.97;101138.41;4824550;29;20098;-81
2021/06/29 04:43:43;;;;;;;10.13;4.90;;;;;;;18.23;67.81;101136.31;4827339;29;20525;-81
2021/06/29 04:46:08;;;;;;;9.57;4.60;;;;;;;17.68;69.24;101143.03;4818880;29;20492;-79
2021/06/29 04:48:37;;;;;;;10.77;4.93;;;;;;;17.81;68.78;101156.44;4814019;29;20030;-80
2021/06/29 04:51:03;;;;;;;10.10;4.85;;;;;;;17.37;70.51;101158.63;4820403;29;20137;-79
2021/06/29 04:53:29;;;;;;;12.95;4.93;;;;;;;17.20;71.01;101138.63;4804118;29;20062;-79
2021/06/29 04:55:54;;;;;;;11.75;5.18;;;;;;;16.99;71.30;101118.28;4794676;29;20101;-82
2021/06/29 04:58:20;;;;;;;14.98;4.97;;;;;;;17.11;71.36;101142.75;4813787;29;20035;-81
2021/06/29 05:00:46;;;;;;;11.70;5.20;;;;;;;16.89;71.11;101140.59;4809397;29;20038;-83
2021/06/29 05:03:12;;;;;;;14.05;5.88;;;;;;;17.25;70.60;101133.34;4814909;29;20035;-83
2021/06/29 05:05:38;;;;;;;12.35;5.53;;;;;;;17.37;69.95;101146.94;4808045;29;20038;-81
2021/06/29 05:08:04;;;;;;;11.93;4.85;;;;;;;17.58;69.31;101153.66;4813445;29;20046;-84
2021/06/29 05:10:29;;;;;;;10.40;5.25;;;;;;;17.18;70.12;101143.47;4813741;29;20031;-83
2021/06/29 05:12:55;;;;;;;11.80;5.35;;;;;;;16.83;71.23;101152.41;4821799;29;20038;-84
2021/06/29 05:15:20;;;;;;;10.38;5.30;;;;;;;16.58;71.25;101122.63;4843161;29;20030;-83
2021/06/29 05:17:46;;;;;;;16.20;5.53;;;;;;;16.74;71.41;101140.16;4834413;29;20074;-82
2021/06/29 05:20:12;;;;;;;11.52;5.85;;;;;;;16.85;71.58;101133.97;4825688;29;20026;-83
2021/06/29 05:22:38;;;;;;;16.55;5.55;;;;;;;17.60;69.86;101129.78;4838599;29;20039;-81
2021/06/29 05:25:05;;;;;;;11.50;5.22;;;;;;;18.31;67.81;101136.75;4828020;29;20055;-81
2021/06/29 05:27:31;;;;;;;13.57;5.00;;;;;;;18.60;66.40;101144.91;4828634;29;20021;-80
2021/06/29 05:29:57;;;;;;;11.65;4.90;;;;;;;18.99;65.74;101137.75;4830840;29;20018;-82
2021/06/29 05:32:22;;;;;;;10.60;4.63;;;;;;;19.12;64.93;101119.41;4815393;29;20031;-81
2021/06/29 05:34:48;;;;;;;12.23;4.55;;;;;;;19.48;64.83;101145.34;4828167;29;20039;-80
2021/06/29 05:37:13;;;;;;;13.65;4.80;;;;;;;19.18;64.46;101137.53;4816885;29;20053;-83
2021/06/29 05:39:38;;;;;;;12.45;4.90;;;;;;;18.88;65.46;101118.75;4828462;29;20031;-80
2021/06/29 05:42:04;;;;;;;10.02;4.53;;;;;;;19.24;64.96;101131.06;4806182;29;20046;-81
2021/06/29 05:44:30;;;;;;;10.43;4.57;;;;;;;19.34;64.38;101122.22;4815094;29;20099;-80
2021/06/29 05:46:56;;;;;;;13.40;4.53;;;;;;;19.52;64.32;101148.41;4805031;29;20038;-80
2021/06/29 05:49:22;;;;;;;13.60;4.75;;;;;;;19.70;63.04;101139.94;4802658;29;20545;-80
2021/06/29 05:51:48;;;;;;;15.13;4.88;;;;;;;19.74;63.19;101140.31;4820590;29;20073;-80
2021/06/29 05:54:17;;;;;;;16.88;5.00;;;;;;;19.93;62.56;101141.63;4826153;29;20050;-80
2021/06/29 05:56:43;;;;;;;13.45;5.00;;;;;;;19.89;61.90;101141.31;4824701;29;20119;-81
2021/06/29 05:59:09;;;;;;;8.63;4.63;;;;;;;20.02;61.59;101134.66;4821483;29;20056;-80
2021/06/29 06:01:35;;;;;;;17.05;5.50;;;;;;;20.00;62.10;101131.38;4819775;29;20027;-81
2021/06/29 06:04:01;;;;;;;13.68;5.15;;;;;;;20.10;61.82;101130.66;4817094;29;20060;-80
2021/06/29 06:06:27;;;;;;;13.48;5.18;;;;;;;20.24;61.13;101128.38;4833746;29;20060;-81
2021/06/29 06:08:54;;;;;;;17.80;5.47;;;;;;;20.17;60.71;101129.38;4817678;29;20058;-79
2021/06/29 06:11:20;;;;;;;13.93;4.95;;;;;;;20.14;60.89;101115.41;4813973;29;20026;-79
2021/06/29 06:13:46;;;;;;;12.85;5.43;;;;;;;20.28;60.54;101118.56;4810803;29;20047;-79
2021/06/29 06:16:12;;;;;;;13.88;5.78;;;;;;;20.12;60.15;101115.66;4789997;29;20038;-78
2021/06/29 06:18:38;;;;;;;12.80;5.72;;;;;;;19.99;60.62;101118.75;4802295;29;20047;-79
2021/06/29 06:21:04;;;;;;;12.18;5.35;;;;;;;19.91;60.65;101116.50;4808479;29;20035;-79
2021/06/29 06:23:30;;;;;;;14.27;5.93;;;;;;;19.84;60.33;101107.66;4812716;29;20386;-81
2021/06/29 06:25:56;;;;;;;12.32;5.50;;;;;;;19.75;60.78;101117.38;4813121;29;20041;-80
2021/06/29 06:28:21;;;;;;;13.63;5.28;;;;;;;19.78;61.26;101116.88;4820537;29;20027;-79
2021/06/29 06:30:47;;;;;;;11.63;5.32;;;;;;;19.90;61.06;101104.75;4826733;29;20068;-80
2021/06/29 06:33:12;;;;;;;15.02;5.30;;;;;;;19.95;60.84;101118.44;4813811;29;20031;-80
2021/06/29 06:35:38;;;;;;;14.65;5.93;;;;;;;19.91;60.23;101091.91;4814308;29;20078;-79
2021/06/29 06:38:04;;;;;;;10.35;5.18;;;;;;;20.06;59.98;101115.84;4798554;29;20098;-80
2021/06/29 06:40:30;;;;;;;16.50;5.18;;;;;;;20.12;59.96;101117.56;4832286;29;20027;-81
2021/06/29 06:42:55;;;;;;;15.80;5.68;;;;;;;20.17;60.05;101113.00;4800176;29;20149;-81
2021/06/29 06:45:24;;;;;;;13.18;5.78;;;;;;;20.07;60.38;101120.25;4815018;29;20050;-80
2021/06/29 06:47:54;;;;;;;12.30;5.38;;;;;;;20.08;60.27;101113.69;4820111;29;20019;-79
2021/06/29 06:50:20;;;;;;;16.00;5.13;;;;;;;20.17;60.15;101123.91;4820034;29;20042;-79
2021/06/29 06:52:45;;;;;;;14.55;5.85;;;;;;;20.17;60.17;101117.63;4815315;29;20897;-80
2021/06/29 06:55:11;;;;;;;11.73;5.35;;;;;;;20.40;59.85;101122.81;4811098;29;20071;-80
2021/06/29 06:57:37;;;;;;;14.80;5.57;;;;;;;20.31;59.73;101121.63;4810647;29;20095;-80
2021/06/29 07:00:06;;;;;;;14.10;5.47;;;;;;;20.27;59.45;101103.25;4780288;29;20031;-79
2021/06/29 07:02:32;;;;;;;13.02;5.00;;;;;;;20.41;59.58;101124.47;4812399;29;20042;-80
2021/06/29 07:04:57;;;;;;;12.65;4.95;;;;;;;20.60;59.65;101124.16;4814794;29;20041;-78
2021/06/29 07:07:22;;;;;;;17.98;5.40;;;;;;;20.45;59.39;101116.56;4831191;29;20401;-79
2021/06/29 07:09:48;;;;;;;12.63;5.15;;;;;;;20.33;59.88;101135.00;4819993;29;20071;-80
2021/06/29 07:12:13;;;;;;;12.55;5.47;;;;;;;20.36;60.10;101129.03;4819900;29;20043;-79
2021/06/29 07:14:39;;;;;;;13.68;5.93;;;;;;;20.30;59.91;101130.09;4808280;29;20046;-79
2021/06/29 07:17:05;;;;;;;19.95;6.40;;;;;;;20.15;59.95;101138.91;4800454;29;20066;-79
2021/06/29 07:19:31;;;;;;;10.35;5.07;;;;;;;19.98;60.73;101133.50;4811403;29;20416;-80
2021/06/29 07:21:56;;;;;;;14.15;5.55;;;;;;;19.80;60.41;101115.53;4816275;29;20450;-80
2021/06/29 07:24:22;;;;;;;15.55;5.85;;;;;;;19.53;61.90;101141.84;4813722;29;20123;-79
2021/06/29 07:26:47;;;;;;;18.80;6.28;;;;;;;19.45;61.55;101143.94;4811361;29;20035;-78
2021/06/29 07:29:13;;;;;;;11.07;5.93;;;;;;;19.18;61.80;101145.72;4813415;29;20497;-79
2021/06/29 07:31:39;;;;;;;17.02;5.97;;;;;;;18.82;62.41;101147.81;4804094;29;20037;-78
2021/06/29 07:34:04;;;;;;;13.65;5.72;;;;;;;18.77;62.81;101139.53;4805056;29;20042;-78
2021/06/29 07:36:29;;;;;;;15.50;6.70;;;;;;;18.76;63.22;101146.88;4817460;29;20095;-78
2021/06/29 07:38:56;;;;;;;13.02;6.07;;;;;;;18.83;63.67;101160.38;4809531;29;20073;-79
2021/06/29 07:41:22;;;;;;;13.73;6.03;;;;;;;18.85;63.46;101151.97;4823448;29;20083;-79
2021/06/29 07:43:47;;;;;;;16.15;5.88;;;;;;;18.99;63.12;101145.94;4809525;29;20535;-79
2021/06/29 07:46:13;;;;;;;11.18;5.90;;;;;;;19.20;63.23;101149.84;4807125;29;20054;-79
2021/06/29 07:48:38;;;;;;;16.63;6.07;;;;;;;19.32;62.40;101151.66;4801862;29;20041;-78
2021/06/29 07:51:06;;;;;;;12.57;6.22;;;;;;;18.91;62.97;101156.44;4799430;29;20035;-78
2021/06/29 07:53:32;;;;;;;17.73;6.75;;;;;;;18.56;63.05;101154.66;4786925;29;20042;-78
2021/06/29 07:55:59;;;;;;;13.70;5.75;;;;;;;18.27;64.24;101167.44;4801319;29;20126;-78
2021/06/29 07:58:25;;;;;;;14.20;5.38;;;;;;;17.84;64.40;101131.41;4810592;29;20051;-78
2021/06/29 08:00:50;;;;;;;13.38;5.72;;;;;;;17.87;64.86;101164.69;4785778;29;20034;-78
2021/06/29 08:03:16;;;;;;;13.18;6.05;;;;;;;17.84;65.23;101169.53;4804822;29;20043;-79
2021/06/29 08:05:42;;;;;;;13.00;5.80;;;;;;;17.94;65.08;101171.66;4801174;29;20094;-79
2021/06/29 08:08:08;;;;;;;15.77;5.88;;;;;;;18.00;64.90;101161.72;4811331;29;20066;-79
2021/06/29 08:10:35;;;;;;;15.90;6.38;;;;;;;17.88;65.32;101159.03;4816406;29;20038;-78
2021/06/29 08:13:00;;;;;;;16.13;6.15;;;;;;;17.94;65.22;101159.94;4806966;29;20125;-79
2021/06/29 08:15:27;;;;;;;13.38;6.00;;;;;;;18.06;65.17;101167.03;4806393;29;20077;-78
2021/06/29 08:17:53;;;;;;;14.98;6.20;;;;;;;18.06;64.73;101168.91;4817127;29;20026;-79
2021/06/29 08:20:19;;;;;;;13.95;6.78;;;;;;;17.93;64.98;101161.00;4814342;29;20046;-80
2021/06/29 08:22:45;;;;;;;14.27;6.50;;;;;;;17.95;65.38;101157.00;4812258;29;20031;-79
2021/06/29 08:25:11;;;;;;;15.18;6.40;;;;;;;17.98;64.99;101153.78;4822864;29;20032;-80
2021/06/29 08:27:38;;;;;;;13.15;5.90;;;;;;;17.78;64.74;101110.63;4809134;29;20091;-79
2021/06/29 08:30:06;;;;;;;14.85;6.25;;;;;;;18.21;64.99;101149.34;4807704;29;20027;-79
2021/06/29 08:32:32;;;;;;;15.18;6.88;;;;;;;18.33;65.06;101152.84;4808649;29;20357;-80
2021/06/29 08:34:57;;;;;;;15.38;6.68;;;;;;;18.51;64.03;101149.13;4809648;29;20035;-80
2021/06/29 08:37:23;;;;;;;10.52;6.55;;;;;;;18.60;63.98;101144.91;4795177;29;20035;-79
2021/06/29 08:39:49;;;;;;;12.35;7.05;;;;;;;18.61;63.76;101113.88;4821003;29;20372;-79
2021/06/29 08:42:21;;;;;;;12.23;6.63;;;;;;;18.73;63.42;101128.28;4818304;29;20039;-79
2021/06/29 08:44:46;;;;;;;12.38;6.70;;;;;;;19.01;63.13;101129.34;4814957;29;20622;-79
2021/06/29 08:47:12;;;;;;;15.95;7.20;;;;;;;19.06;62.24;101129.41;4813817;29;20115;-78
2021/06/29 08:49:37;;;;;;;14.20;7.05;;;;;;;19.15;62.43;101127.09;4811317;29;20373;-79
2021/06/29 08:52:05;;;;;;;12.55;6.80;;;;;;;19.49;62.81;101130.63;4819174;29;20098;-80
2021/06/29 08:54:31;;;;;;;11.02;6.55;;;;;;;19.61;61.82;101114.16;4822224;29;20023;-80
2021/06/29 08:56:58;;;;;;;10.35;6.30;;;;;;;19.87;61.26;101115.34;4822199;29;20106;-80
2021/06/29 08:59:23;;;;;;;14.82;6.72;;;;;;;20.18;61.25;101124.75;4825111;29;20034;-83
2021/06/29 09:01:49;;;;;;;10.50;6.32;;;;;;;20.27;60.60;101127.84;4818809;29;20051;-80
2021/06/29 09:04:14;;;;;;;14.20;6.63;;;;;;;20.36;60.24;101135.34;4815403;29;20112;-80
2021/06/29 09:06:41;;;;;;;9.68;6.68;;;;;;;20.53;60.14;101134.44;4832596;29;20047;-79
2021/06/29 09:09:28;;;;;;;13.23;6.80;;;;;;;20.60;60.01;101124.97;4819341;29;20063;-82
2021/06/29 09:11:57;;;;;;;16.92;6.72;;;;;;;20.58;60.13;101118.91;4825088;29;20065;-81
2021/06/29 09:14:28;;;;;;;10.45;6.10;;;;;;;20.65;60.16;101116.78;4827716;29;20015;-82
2021/06/29 09:17:17;;;;;;;11.07;6.30;;;;;;;20.86;59.96;101117.84;4830136;29;20019;-81
2021/06/29 09:19:43;;;;;;;10.38;5.78;;;;;;;21.11;59.35;101125.41;4833346;29;20035;-82
2021/06/29 09:22:29;;;;;;;10.82;6.47;;;;;;;21.21;59.30;101123.84;4824438;29;20039;-80
2021/06/29 09:24:55;;;;;;;10.88;6.25;;;;;;;21.20;59.32;101086.63;4834742;29;20035;-80
2021/06/29 09:27:40;;;;;;;13.43;6.50;;;;;;;21.40;59.19;101116.91;4820703;29;20027;-80
2021/06/29 09:30:26;;;;;;;10.52;5.70;;;;;;;21.42;59.03;101130.31;4816226;29;20483;-80
2021/06/29 09:32:51;;;;;;;9.52;6.00;;;;;;;21.42;58.66;101111.97;4814360;29;20039;-80
2021/06/29 09:35:17;;;;;;;12.43;6.40;;;;;;;21.32;59.31;101114.59;4816911;29;20038;-82
2021/06/29 09:37:47;;;;;;;10.40;6.43;;;;;;;21.06;59.11;101099.94;4829578;29;20056;-82
2021/06/29 09:40:14;;;;;;;11.40;6.47;;;;;;;21.20;59.54;101116.72;4830354;29;20037;-82
2021/06/29 09:42:40;;;;;;;10.10;6.45;;;;;;;21.20;59.72;101111.25;4843544;29;20029;-83
2021/06/29 09:45:33;;;;;;;12.68;6.65;;;;;;;21.23;59.78;101116.22;4830900;29;20043;-82
2021/06/29 09:48:00;;;;;;;10.27;5.80;;;;;;;21.14;59.59;101112.31;4829252;29;20019;-82
2021/06/29 09:55:41;;;;;;;12.75;7.00;;;;;;;20.75;60.38;101052.34;4824285;29;20051;-79
2021/06/29 09:58:08;;;;;;;11.38;6.45;;;;;;;20.18;59.90;100939.75;4821722;29;20027;-81
2021/06/29 10:00:49;;;;;;;12.32;6.60;;;;;;;19.98;59.38;100928.66;4826550;29;20027;-80
2021/06/29 10:03:28;;;;;;;11.05;6.60;;;;;;;19.59;60.00;100915.13;4822651;29;20072;-80
2021/06/29 10:05:56;;;;;;;18.30;7.50;;;;;;;20.37;60.38;101021.38;4820877;29;20039;-80
2021/06/29 10:08:32;;;;;;;15.82;7.00;;;;;;;20.83;60.32;101071.03;4818121;29;20055;-79
2021/06/29 10:11:13;;;;;;;10.98;6.57;;;;;;;20.85;60.79;101096.19;4816338;29;20026;-80
2021/06/29 10:13:43;;;;;;;11.73;6.28;;;;;;;20.79;59.49;101102.69;4817866;29;20111;-81
2021/06/29 10:16:11;;;;;;;29.48;8.55;;;;;;;20.66;60.38;101095.75;4815603;29;20030;-79
2021/06/29 10:18:40;;;;;;;11.38;6.47;;;;;;;20.55;60.70;101088.53;4815634;29;20042;-81
2021/06/29 10:21:22;;;;;;;15.95;6.85;;;;;;;20.48;60.53;101096.91;4818887;29;20054;-80
2021/06/29 10:23:50;;;;;;;12.75;6.70;;;;;;;20.47;60.77;101095.28;4826361;29;20046;-80
2021/06/29 10:26:16;;;;;;;13.98;7.20;;;;;;;20.42;60.90;101098.75;4825779;29;20039;-81
2021/06/29 10:28:43;;;;;;;14.40;8.75;;;;;;;20.12;61.12;101080.13;4825410;29;20050;-80
2021/06/29 10:31:10;;;;;;;13.07;7.80;;;;;;;20.02;60.97;101099.13;4825845;29;20027;-83
2021/06/29 10:33:35;;;;;;;14.20;7.25;;;;;;;19.85;61.45;101095.66;4827872;29;20102;-82
2021/06/29 10:36:01;;;;;;;13.23;7.53;;;;;;;19.76;61.40;101092.53;4827054;29;20023;-82
2021/06/29 10:38:28;;;;;;;14.90;7.22;;;;;;;19.73;60.86;101089.47;4832015;29;20038;-82
2021/06/29 10:40:54;;;;;;;14.18;7.05;;;;;;;19.62;60.58;101094.78;4826604;29;20018;-82
2021/06/29 10:43:20;;;;;;;14.10;7.10;;;;;;;19.54;60.32;101072.56;4819234;29;20101;-81
2021/06/29 10:45:48;;;;;;;15.52;7.50;;;;;;;19.62;60.20;101099.41;4824838;29;20042;-81
2021/06/29 10:48:23;;;;;;;12.02;6.75;;;;;;;19.57;59.92;101089.25;4824259;29;20126;-81
2021/06/29 10:50:50;;;;;;;11.63;7.47;;;;;;;19.71;60.58;101085.09;4831292;29;20054;-81
2021/06/29 10:53:38;;;;;;;10.00;6.88;;;;;;;19.88;59.76;101084.22;4812397;29;20065;-80
2021/06/29 10:56:07;;;;;;;15.10;7.32;;;;;;;19.93;59.46;101084.28;4826680;29;20019;-81
2021/06/29 10:58:44;;;;;;;18.33;7.70;;;;;;;20.17;59.42;101096.59;4824419;29;20018;-82
2021/06/29 11:01:26;;;;;;;14.25;6.90;;;;;;;20.13;58.83;101100.94;4818399;29;20030;-82
2021/06/29 11:03:54;;;;;;;16.58;7.22;;;;;;;20.05;58.51;101098.63;4820866;29;20035;-81
2021/06/29 11:06:35;;;;;;;13.20;6.43;;;;;;;20.17;58.45;101098.50;4822042;29;20042;-82
2021/06/29 11:09:01;;;;;;;11.15;6.57;;;;;;;20.34;57.93;101099.25;4844741;29;20046;-81
2021/06/29 11:11:28;;;;;;;17.52;7.13;;;;;;;20.63;57.51;101101.75;4825769;29;20090;-82
2021/06/29 11:13:55;;;;;;;15.20;7.00;;;;;;;21.02;56.53;101102.34;4826132;29;20039;-81
2021/06/29 11:16:51;;;;;;;17.15;7.03;;;;;;;21.41;57.00;101106.78;4823645;29;20007;-82
2021/06/29 11:19:16;;;;;;;16.75;7.57;;;;;;;21.60;57.00;101090.72;4825177;29;20054;-81
2021/06/29 11:21:42;;;;;;;14.48;6.63;;;;;;;21.87;56.15;101098.81;4828125;29;20025;-82
2021/06/29 11:24:35;;;;;;;14.18;6.40;;;;;;;21.57;55.01;101100.28;4822422;29;20047;-80